Decoded Metar for UTAA (ASHKHABAD in RUSSIA) (IATA:ASB) | Meteo·Mobile Aviation Weather
aviador You're here:

UTAA Decoded Metar

ASHKHABAD in RUSSIA
Report Time2018-09-25 18:00:00
UTC Time2018-09-25 19:00:44
Flight Rules vfr VFR
Wind170° at 04 kt
W.Decomp.*RWY 12: 2.8 kt HW 2.9 kt RCW
RWY 11: 2.2 kt HW 3.3 kt RCW
W.Rank170° ranks 27
Current wind is below 170° avg. (4.3)
Visibility9000 m
Phenomena:N/A
Clouds:N/A
Expected CloudBase > 6,400 ft AGL from Temp-Dew spread
CeilingNone
Temp21°C (ISA +7)
Dew Point05°C (35% RH)
AAT18.4°C
QNH1014 hPa
Density Alt1,637 ft
Elevation689 ft
Report Wrong Elevation
Raw Report
METAR UTAA 251800Z 17004KT 110V210 9000 NSC 21/05 Q1014 R88/70D NOSIG=

Extra information for UTAA:More info

Metar Taf Metar & Taf Last 4 Metars F.Rules Stats Wind Profile Meteogram Temp Stats Airport Information Weather charts Add Link Nearby VenuesMetar ALERT Operation Metar Decoded Social comments